Spring's Hourly Summary for Thursday, March 16, 2017
Hour Temp
(f)
RH
(%)
Solar Rad.
(MJ/m2)
Rainfall
(in)
Wind
(mph)
3/16/2017 12:00 AM 54 85 0 0 2.06
3/16/2017 1:00 AM 55 85 0 0 2.65
3/16/2017 2:00 AM 54 87 0 0 1.69
3/16/2017 3:00 AM 54 88 0 0 1.09
3/16/2017 4:00 AM 55 89 0 0 1.3
3/16/2017 5:00 AM 55 89 0 0 0.42
3/16/2017 6:00 AM 55 89 0 0 1.31
3/16/2017 7:00 AM 56 88 0 0 1.23
3/16/2017 8:00 AM 57 88 0.01 0 1.49
3/16/2017 9:00 AM 59 87 0.14 0 2.15
3/16/2017 10:00 AM 61 83 0.55 0 2.86
3/16/2017 11:00 AM 64 80 0.72 0 2.77
3/16/2017 12:00 PM 67 73 1.21 0 4.28
3/16/2017 1:00 PM 70 70 1.8 0 6.25
3/16/2017 2:00 PM 71 68 1.67 0 7.33
3/16/2017 3:00 PM 72 66 1.79 0 6.85
3/16/2017 4:00 PM 72 68 0.98 0 7.27
3/16/2017 5:00 PM 72 65 0.75 0 7.4
3/16/2017 6:00 PM 73 66 0.65 0 9.24
3/16/2017 7:00 PM 72 67 0.25 0 9.68
3/16/2017 8:00 PM 70 72 0.03 0 7.68
3/16/2017 9:00 PM 68 78 0 0 7.35
3/16/2017 10:00 PM 67 83 0 0 6.22
3/16/2017 11:00 PM 67 85 0 0 6.28
Data Summary 63 79 10.55 0.00 4.45